Time;durP1;ratioP1;P1;durP2;ratioP2;P2;SDS_P1;SDS_P2;PMS_P1;PMS_P2;Temp;Humidity;BMP_temperature;BMP_pressure;BME280_temperature;BME280_humidity;BME280_pressure;Samples;Min_cycle;Max_cycle;Signal;HPM_P1;HPM_P2
2021/06/11 00:01:34;;;;;;;6.93;5.80;;;461.20;2380.80;;;;;;5053230;28;20068;-73
2021/06/11 00:04:00;;;;;;;7.50;6.18;;;461.10;2380.80;;;;;;5053000;28;20576;-72
2021/06/11 00:06:25;;;;;;;8.20;6.20;;;461.10;2380.80;;;;;;5052960;28;20020;-76
2021/06/11 00:08:51;;;;;;;6.35;5.65;;;461.00;2380.80;;;;;;5052634;28;20111;-76
2021/06/11 00:11:17;;;;;;;7.15;5.72;;;460.90;2380.80;;;;;;5053060;28;20028;-76
2021/06/11 00:13:43;;;;;;;8.93;5.70;;;460.90;2380.80;;;;;;5052840;28;20048;-76
2021/06/11 00:16:09;;;;;;;7.82;5.70;;;460.80;2380.80;;;;;;5052518;28;20036;-77
2021/06/11 00:18:35;;;;;;;9.48;5.55;;;436.10;2355.20;;;;;;5053017;28;20017;-73
2021/06/11 00:21:01;;;;;;;6.88;5.40;;;436.10;2355.20;;;;;;5052790;28;20456;-73
2021/06/11 00:23:26;;;;;;;7.55;5.28;;;436.00;2355.20;;;;;;5052592;28;20021;-73
2021/06/11 00:25:52;;;;;;;6.18;5.22;;;436.00;2355.20;;;;;;5052774;28;20067;-73
2021/06/11 00:28:18;;;;;;;8.07;5.60;;;435.90;2355.20;;;;;;5052851;28;20017;-73
2021/06/11 00:30:44;;;;;;;7.10;5.32;;;435.80;2355.20;;;;;;5052772;28;20104;-76
2021/06/11 00:33:10;;;;;;;7.38;5.25;;;435.70;2355.20;;;;;;5034685;28;20479;-76
2021/06/11 00:35:37;;;;;;;8.07;5.50;;;435.70;2355.20;;;;;;5052510;28;20025;-72
2021/06/11 00:38:03;;;;;;;7.20;5.95;;;435.60;2355.20;;;;;;5058346;28;20375;-76
2021/06/11 00:40:30;;;;;;;7.25;5.80;;;435.50;2355.20;;;;;;5052344;28;20032;-72
2021/06/11 00:42:56;;;;;;;7.15;5.15;;;435.50;2355.20;;;;;;5052461;28;20498;-72
2021/06/11 00:45:22;;;;;;;8.93;6.07;;;435.40;2355.20;;;;;;5066050;28;20025;-72
2021/06/11 00:47:48;;;;;;;7.38;6.10;;;435.30;2355.20;;;;;;5062536;28;20028;-71
2021/06/11 00:50:22;;;;;;;8.65;6.35;;;435.20;2355.20;;;;;;5056029;28;20031;-71
2021/06/11 00:52:53;;;;;;;8.68;5.80;;;410.50;2355.20;;;;;;5052191;28;20024;-72
2021/06/11 00:55:19;;;;;;;7.60;5.68;;;410.50;2355.20;;;;;;5052274;28;20131;-72
2021/06/11 00:57:45;;;;;;;6.88;5.50;;;410.40;2355.20;;;;;;5052358;28;20504;-76
2021/06/11 01:00:11;;;;;;;8.80;6.32;;;410.40;2355.20;;;;;;5052221;28;20033;-75
2021/06/11 01:02:37;;;;;;;7.03;5.68;;;410.50;2355.20;;;;;;5057837;28;20020;-72
2021/06/11 01:05:03;;;;;;;9.15;5.78;;;410.50;2355.20;;;;;;5060281;28;20021;-76
2021/06/11 01:07:30;;;;;;;8.88;5.97;;;410.50;2355.20;;;;;;5051810;28;20044;-72
2021/06/11 01:09:56;;;;;;;6.63;5.53;;;410.50;2355.20;;;;;;5062561;28;20037;-73
2021/06/11 01:12:22;;;;;;;9.02;6.38;;;410.50;2355.20;;;;;;5072121;28;20016;-72
2021/06/11 01:14:48;;;;;;;8.13;6.10;;;410.40;2355.20;;;;;;5067925;28;20024;-73
2021/06/11 01:17:14;;;;;;;7.32;5.72;;;410.40;2355.20;;;;;;5052018;28;20502;-72
2021/06/11 01:19:44;;;;;;;7.18;5.50;;;410.30;2355.20;;;;;;5052223;28;20048;-73
2021/06/11 01:22:23;;;;;;;8.93;5.90;;;410.30;2355.20;;;;;;5052161;28;20414;-75
2021/06/11 01:24:52;;;;;;;7.85;6.10;;;410.20;2355.20;;;;;;5052034;28;20151;-72
2021/06/11 01:27:19;;;;;;;7.85;5.50;;;410.00;2355.20;;;;;;5051999;28;20476;-72
2021/06/11 01:29:49;;;;;;;8.77;6.00;;;409.70;2355.20;;;;;;5051910;28;20029;-76
2021/06/11 01:32:16;;;;;;;7.90;5.97;;;409.70;2355.20;;;;;;5052026;28;20100;-77
2021/06/11 01:34:44;;;;;;;7.18;5.82;;;409.80;2355.20;;;;;;5051973;28;20029;-73
2021/06/11 01:37:18;;;;;;;7.57;5.78;;;409.80;2355.20;;;;;;5051868;28;20028;-72
2021/06/11 01:39:57;;;;;;;7.72;5.95;;;409.80;2355.20;;;;;;5051886;28;20032;-76
2021/06/11 01:42:25;;;;;;;8.70;6.20;;;409.80;2355.20;;;;;;5051833;28;20021;-77
2021/06/11 01:44:54;;;;;;;7.45;5.95;;;409.80;2355.20;;;;;;5051937;28;20021;-77
2021/06/11 01:47:22;;;;;;;7.25;5.57;;;409.80;2355.20;;;;;;5051979;28;20021;-77
2021/06/11 01:49:49;;;;;;;7.55;5.72;;;409.90;2355.20;;;;;;5051636;28;20056;-77
2021/06/11 01:52:17;;;;;;;7.85;5.60;;;409.90;2355.20;;;;;;5051681;28;20021;-76
2021/06/11 01:54:45;;;;;;;7.32;6.05;;;409.90;2355.20;;;;;;5051936;28;20032;-76
2021/06/11 01:57:12;;;;;;;8.45;6.22;;;409.90;2355.20;;;;;;5051539;28;20021;-73
2021/06/11 01:59:39;;;;;;;7.63;6.13;;;409.90;2355.20;;;;;;5051815;28;20151;-77
2021/06/11 02:02:06;;;;;;;8.70;6.10;;;409.90;2355.20;;;;;;5052952;28;20052;-76
2021/06/11 02:04:33;;;;;;;8.18;6.32;;;409.90;2355.20;;;;;;5055271;28;20487;-73
2021/06/11 02:06:59;;;;;;;7.70;6.60;;;409.80;2355.20;;;;;;5055295;28;20045;-73
2021/06/11 02:09:27;;;;;;;8.35;7.00;;;409.80;2355.20;;;;;;5055084;28;20044;-72
2021/06/11 02:11:54;;;;;;;7.90;6.55;;;409.70;2355.20;;;;;;5055536;28;20431;-72
2021/06/11 02:14:22;;;;;;;8.73;7.00;;;409.70;2355.20;;;;;;5056452;28;20491;-71
2021/06/11 02:16:48;;;;;;;8.50;7.07;;;409.60;2355.20;;;;;;5055117;28;20036;-73
2021/06/11 02:19:14;;;;;;;15.40;12.30;;;384.80;2329.60;;;;;;5055031;28;20075;-72
2021/06/11 02:21:41;;;;;;;19.25;13.80;;;384.80;2329.60;;;;;;5055040;28;20037;-73
2021/06/11 02:24:08;;;;;;;15.45;12.05;;;384.80;2329.60;;;;;;5055116;28;20561;-73
2021/06/11 02:26:34;;;;;;;15.20;11.80;;;384.70;2329.60;;;;;;5054834;28;20040;-76
2021/06/11 02:29:00;;;;;;;16.02;12.20;;;384.70;2329.60;;;;;;5055005;28;20025;-77
2021/06/11 02:31:26;;;;;;;16.60;12.82;;;384.80;2329.60;;;;;;5053500;28;20051;-80
2021/06/11 02:33:52;;;;;;;17.45;13.68;;;384.80;2329.60;;;;;;5054917;28;20032;-75
2021/06/11 02:36:18;;;;;;;20.60;16.40;;;384.70;2329.60;;;;;;5054566;28;20368;-72
2021/06/11 02:38:44;;;;;;;16.23;14.25;;;384.70;2329.60;;;;;;5054863;28;20025;-73
2021/06/11 02:41:15;;;;;;;15.05;12.32;;;384.70;2329.60;;;;;;5054517;28;20017;-72
2021/06/11 02:43:42;;;;;;;13.93;12.30;;;384.80;2329.60;;;;;;5059489;28;20025;-73
2021/06/11 02:46:25;;;;;;;14.85;11.02;;;384.80;2329.60;;;;;;5054543;28;20013;-73
2021/06/11 02:49:11;;;;;;;16.83;12.05;;;384.80;2329.60;;;;;;5054727;28;20064;-73
2021/06/11 02:51:39;;;;;;;14.00;11.73;;;384.90;2329.60;;;;;;5054577;28;20017;-77
2021/06/11 02:54:11;;;;;;;10.07;8.85;;;384.90;2329.60;;;;;;5054433;28;20388;-76
2021/06/11 02:56:58;;;;;;;11.23;8.07;;;384.90;2329.60;;;;;;5054457;28;20383;-76
2021/06/11 02:59:32;;;;;;;10.07;6.97;;;384.90;2329.60;;;;;;5054169;28;20032;-76
2021/06/11 03:02:03;;;;;;;8.38;6.38;;;384.90;2329.60;;;;;;5054428;28;20021;-76
2021/06/11 03:04:31;;;;;;;9.05;5.80;;;384.80;2329.60;;;;;;5053978;28;20048;-73
2021/06/11 03:06:58;;;;;;;8.85;6.43;;;384.80;2329.60;;;;;;5054173;28;20063;-73
2021/06/11 03:09:26;;;;;;;9.57;6.10;;;384.70;2329.60;;;;;;5054111;28;20045;-72
2021/06/11 03:11:58;;;;;;;8.68;6.25;;;384.60;2329.60;;;;;;5054180;28;20088;-73
2021/06/11 03:14:26;;;;;;;10.35;6.57;;;384.60;2329.60;;;;;;5053851;28;20048;-74
2021/06/11 03:16:58;;;;;;;8.50;6.15;;;384.60;2329.60;;;;;;5053817;28;20082;-73
2021/06/11 03:19:33;;;;;;;8.35;6.13;;;384.60;2329.60;;;;;;5054314;28;20497;-73
2021/06/11 03:22:33;;;;;;;9.63;6.32;;;384.60;2329.60;;;;;;5054192;28;20028;-73
2021/06/11 03:25:04;;;;;;;8.30;5.97;;;384.60;2329.60;;;;;;5053883;28;20044;-73
2021/06/11 03:27:42;;;;;;;9.02;6.47;;;384.60;2329.60;;;;;;5053923;28;20017;-72
2021/06/11 03:30:10;;;;;;;8.63;6.60;;;384.60;2329.60;;;;;;5035788;28;20045;-73
2021/06/11 03:33:00;;;;;;;9.55;6.32;;;384.60;2329.60;;;;;;5062597;28;20509;-73
2021/06/11 03:35:35;;;;;;;9.23;6.30;;;384.60;2329.60;;;;;;5053555;28;20047;-73
2021/06/11 03:38:07;;;;;;;9.32;6.05;;;384.60;2329.60;;;;;;5053499;28;20018;-76
2021/06/11 03:40:37;;;;;;;8.90;6.20;;;384.70;2329.60;;;;;;5053429;28;20021;-76
2021/06/11 03:43:03;;;;;;;8.05;6.45;;;384.70;2329.60;;;;;;5053578;28;20017;-78
2021/06/11 03:45:29;;;;;;;9.85;6.25;;;384.70;2329.60;;;;;;5053240;28;20116;-76
2021/06/11 03:47:58;;;;;;;8.88;6.13;;;384.80;2329.60;;;;;;5053557;28;20391;-73
2021/06/11 03:50:25;;;;;;;8.20;6.75;;;384.90;2329.60;;;;;;5053778;28;20029;-73
2021/06/11 03:52:57;;;;;;;8.32;6.63;;;384.90;2329.60;;;;;;5053423;28;20067;-73
2021/06/11 03:55:26;;;;;;;8.25;6.45;;;409.60;2355.20;;;;;;5053381;28;20112;-73
2021/06/11 03:57:57;;;;;;;9.20;6.95;;;409.60;2355.20;;;;;;5053045;28;20017;-73
2021/06/11 04:00:23;;;;;;;;;;;409.60;2355.20;;;;;;5053596;28;20497;-73
2021/06/11 04:02:49;;;;;;;8.88;6.80;;;409.70;2355.20;;;;;;5053140;28;19980;-73
2021/06/11 04:05:15;;;;;;;11.60;7.55;;;409.70;2355.20;;;;;;5053071;28;20025;-73
2021/06/11 04:07:46;;;;;;;9.20;7.90;;;409.80;2355.20;;;;;;5052494;28;20511;-73
2021/06/11 04:10:22;;;;;;;9.00;7.43;;;384.80;2329.60;;;;;;5053110;28;20071;-73
2021/06/11 04:12:55;;;;;;;8.32;6.63;;;384.80;2329.60;;;;;;5052880;28;20029;-73
2021/06/11 04:15:24;;;;;;;9.23;6.82;;;384.90;2329.60;;;;;;5052978;28;20021;-73
2021/06/11 04:17:53;;;;;;;10.50;6.70;;;409.70;2355.20;;;;;;5052735;28;20083;-74
2021/06/11 04:20:26;;;;;;;9.18;6.97;;;409.70;2355.20;;;;;;5053020;28;20017;-73
2021/06/11 04:22:55;;;;;;;10.63;7.47;;;409.60;2355.20;;;;;;5052725;28;20084;-73
2021/06/11 04:25:21;;;;;;;9.75;7.80;;;409.70;2355.20;;;;;;5052227;28;20042;-71
2021/06/11 04:27:52;;;;;;;9.75;7.03;;;410.00;2355.20;;;;;;5053105;28;20406;-73
2021/06/11 04:30:18;;;;;;;8.57;6.70;;;410.10;2355.20;;;;;;5052631;28;20051;-72
2021/06/11 04:32:45;;;;;;;10.75;7.13;;;410.30;2355.20;;;;;;5052601;28;20075;-71
2021/06/11 04:35:11;;;;;;;9.13;6.65;;;410.40;2355.20;;;;;;5052462;28;20617;-75
2021/06/11 04:37:38;;;;;;;8.40;6.10;;;435.20;2355.20;;;;;;5052557;28;20483;-75
2021/06/11 04:40:06;;;;;;;10.95;7.60;;;435.40;2355.20;;;;;;5052430;28;20493;-72
2021/06/11 04:42:33;;;;;;;9.38;6.22;;;435.70;2355.20;;;;;;5052622;28;20110;-72
2021/06/11 04:44:59;;;;;;;9.18;6.82;;;460.80;2380.80;;;;;;5052879;28;20375;-71
2021/06/11 04:47:27;;;;;;;9.85;7.10;;;460.90;2380.80;;;;;;5052319;28;20056;-71
2021/06/11 04:49:54;;;;;;;9.35;6.57;;;461.20;2380.80;;;;;;5052434;28;20564;-73
2021/06/11 04:52:20;;;;;;;9.48;6.82;;;461.10;2380.80;;;;;;5052255;28;20506;-73
2021/06/11 04:54:46;;;;;;;7.70;6.60;;;461.10;2380.80;;;;;;5052625;28;20033;-72
2021/06/11 04:57:12;;;;;;;9.07;6.70;;;461.40;2380.80;;;;;;5060011;28;20032;-73
2021/06/11 04:59:38;;;;;;;8.93;7.15;;;461.40;2380.80;;;;;;5068874;28;20471;-73
2021/06/11 05:02:03;;;;;;;9.48;7.28;;;461.10;2380.80;;;;;;5069727;28;20060;-72
2021/06/11 05:04:29;;;;;;;9.82;7.70;;;461.20;2380.80;;;;;;5054348;28;20139;-72
2021/06/11 05:06:55;;;;;;;10.07;7.07;;;461.40;2380.80;;;;;;5063656;28;20029;-72
2021/06/11 05:09:21;;;;;;;8.13;6.50;;;461.50;2380.80;;;;;;5070265;28;20559;-72
2021/06/11 05:11:48;;;;;;;11.15;6.35;;;461.70;2380.80;;;;;;5070740;28;20046;-71
2021/06/11 05:14:14;;;;;;;7.95;6.47;;;486.40;2380.80;;;;;;5071218;28;20020;-73
2021/06/11 05:16:40;;;;;;;9.00;6.72;;;461.50;2380.80;;;;;;5052097;28;20029;-73
2021/06/11 05:19:06;;;;;;;7.63;6.40;;;461.40;2380.80;;;;;;5051965;28;20020;-74
2021/06/11 05:21:32;;;;;;;10.30;6.68;;;461.40;2380.80;;;;;;5051966;28;20053;-72
2021/06/11 05:23:57;;;;;;;7.90;6.72;;;461.50;2380.80;;;;;;5057292;28;20078;-73
2021/06/11 05:26:24;;;;;;;10.60;6.40;;;486.40;2380.80;;;;;;5066478;28;20024;-72
2021/06/11 05:28:50;;;;;;;8.70;6.20;;;486.50;2380.80;;;;;;5068716;28;20601;-72
2021/06/11 05:31:15;;;;;;;8.07;5.90;;;486.70;2380.80;;;;;;5069193;28;20025;-71
2021/06/11 05:33:41;;;;;;;7.03;5.80;;;486.90;2380.80;;;;;;5068437;28;20082;-72
2021/06/11 05:36:07;;;;;;;8.35;5.88;;;487.00;2380.80;;;;;;5071369;28;20032;-69
2021/06/11 05:38:33;;;;;;;9.48;6.15;;;487.10;2380.80;;;;;;5070554;28;20025;-70
2021/06/11 05:41:01;;;;;;;8.57;6.78;;;487.10;2380.80;;;;;;5072989;28;20529;-71
2021/06/11 05:43:27;;;;;;;7.63;6.32;;;487.10;2380.80;;;;;;5063455;28;20024;-70
2021/06/11 05:45:53;;;;;;;9.20;6.50;;;487.10;2380.80;;;;;;5055727;28;20017;-70
2021/06/11 05:48:19;;;;;;;8.60;6.55;;;487.20;2380.80;;;;;;5056081;28;20013;-70
2021/06/11 05:50:45;;;;;;;9.95;6.75;;;487.20;2380.80;;;;;;5055447;28;20017;-74
2021/06/11 05:53:11;;;;;;;11.75;7.22;;;487.10;2380.80;;;;;;5055602;28;20435;-75
2021/06/11 05:55:37;;;;;;;9.48;6.80;;;487.20;2380.80;;;;;;5055552;28;20017;-75
2021/06/11 05:58:03;;;;;;;8.85;6.45;;;512.10;2380.80;;;;;;5055223;28;20044;-75
2021/06/11 06:00:29;;;;;;;8.93;6.63;;;487.30;2380.80;;;;;;5055506;28;20044;-74
2021/06/11 06:02:55;;;;;;;8.05;6.78;;;487.30;2380.80;;;;;;5055321;28;20021;-71
2021/06/11 06:05:20;;;;;;;8.75;6.55;;;487.10;2380.80;;;;;;5055359;28;20040;-71
2021/06/11 06:07:46;;;;;;;8.15;6.22;;;487.00;2380.80;;;;;;5055211;28;20045;-70
2021/06/11 06:10:13;;;;;;;9.32;6.55;;;486.90;2380.80;;;;;;5055250;28;20024;-71
2021/06/11 06:12:39;;;;;;;8.60;6.00;;;487.00;2380.80;;;;;;5055427;28;20383;-70
2021/06/11 06:15:06;;;;;;;8.32;6.00;;;487.10;2380.80;;;;;;5055055;28;20020;-71
2021/06/11 06:17:35;;;;;;;8.48;5.53;;;487.10;2380.80;;;;;;5055288;28;20517;-70
2021/06/11 06:20:04;;;;;;;7.55;5.55;;;487.30;2380.80;;;;;;5054854;28;20550;-71
2021/06/11 06:22:29;;;;;;;8.10;5.55;;;512.20;2380.80;;;;;;5055489;28;20382;-74
2021/06/11 06:24:55;;;;;;;8.07;5.72;;;512.40;2380.80;;;;;;5054870;28;20088;-74
2021/06/11 06:27:21;;;;;;;7.78;5.65;;;512.70;2380.80;;;;;;5055068;28;20111;-70
2021/06/11 06:29:47;;;;;;;8.20;5.55;;;512.90;2380.80;;;;;;5054782;28;20496;-72
2021/06/11 06:32:12;;;;;;;8.50;5.43;;;537.60;2406.40;;;;;;5054842;28;20047;-71
2021/06/11 06:34:38;;;;;;;8.85;5.93;;;537.70;2406.40;;;;;;5054900;28;20029;-71
2021/06/11 06:37:06;;;;;;;7.07;5.82;;;512.90;2380.80;;;;;;5055158;28;20025;-71
2021/06/11 06:39:32;;;;;;;7.15;5.57;;;512.90;2380.80;;;;;;5054985;28;20067;-71
2021/06/11 06:41:58;;;;;;;6.72;5.55;;;512.90;2380.80;;;;;;5054546;28;20440;-75
2021/06/11 06:44:24;;;;;;;10.20;5.68;;;512.60;2380.80;;;;;;5054641;28;20055;-72
2021/06/11 06:46:50;;;;;;;8.10;5.90;;;512.30;2380.80;;;;;;5054574;28;20033;-75
2021/06/11 06:49:16;;;;;;;7.97;5.90;;;512.10;2380.80;;;;;;5054049;28;20029;-76
2021/06/11 06:51:41;;;;;;;8.50;5.35;;;512.20;2380.80;;;;;;5054788;28;20108;-74
2021/06/11 06:54:07;;;;;;;8.18;5.50;;;512.50;2380.80;;;;;;5054388;28;20387;-72
2021/06/11 06:56:33;;;;;;;8.68;6.30;;;512.80;2380.80;;;;;;5054791;28;20028;-72
2021/06/11 06:58:59;;;;;;;9.18;6.50;;;512.70;2380.80;;;;;;5036469;28;20017;-72
2021/06/11 07:01:26;;;;;;;9.13;6.30;;;512.90;2380.80;;;;;;5054695;28;20017;-71
2021/06/11 07:03:56;;;;;;;8.40;7.25;;;537.70;2406.40;;;;;;5054600;28;20458;-72
2021/06/11 07:06:26;;;;;;;8.30;7.32;;;537.70;2406.40;;;;;;5053983;28;20490;-71
2021/06/11 07:08:52;;;;;;;9.40;6.73;;;537.60;2406.40;;;;;;5054168;28;20546;-71
2021/06/11 07:11:18;;;;;;;9.15;6.50;;;537.90;2406.40;;;;;;5054138;28;20029;-70
2021/06/11 07:13:44;;;;;;;6.80;5.93;;;538.20;2406.40;;;;;;5054227;28;20036;-71
2021/06/11 07:16:10;;;;;;;10.45;7.00;;;538.50;2406.40;;;;;;5054244;28;20475;-72
2021/06/11 07:18:38;;;;;;;9.57;6.55;;;563.50;2432.00;;;;;;5036342;28;20384;-72
2021/06/11 07:21:05;;;;;;;9.23;6.90;;;563.60;2432.00;;;;;;5054166;28;20025;-71
2021/06/11 07:23:32;;;;;;;10.50;7.28;;;564.10;2432.00;;;;;;5054300;28;20035;-72
2021/06/11 07:25:59;;;;;;;8.52;6.60;;;589.00;2432.00;;;;;;5054295;28;20025;-71
2021/06/11 07:28:28;;;;;;;11.43;9.27;;;589.10;2432.00;;;;;;5053802;28;20048;-72
2021/06/11 07:30:55;;;;;;;10.73;8.73;;;589.40;2432.00;;;;;;5053894;28;20512;-72
2021/06/11 07:33:21;;;;;;;10.95;8.50;;;589.60;2432.00;;;;;;5053803;28;20024;-71
2021/06/11 07:35:47;;;;;;;10.30;7.70;;;614.70;2432.00;;;;;;5053789;28;20021;-72
2021/06/11 07:38:13;;;;;;;12.55;7.35;;;615.00;2432.00;;;;;;5053681;28;20033;-72
2021/06/11 07:40:38;;;;;;;9.55;7.13;;;615.30;2432.00;;;;;;5053633;28;20391;-71
2021/06/11 07:43:04;;;;;;;9.77;6.32;;;640.10;2432.00;;;;;;5053929;28;20036;-72
2021/06/11 07:45:31;;;;;;;9.13;6.80;;;640.10;2432.00;;;;;;5053252;28;20394;-76
2021/06/11 07:47:57;;;;;;;9.60;6.35;;;615.30;2432.00;;;;;;5053612;28;20029;-71
2021/06/11 07:50:23;;;;;;;9.10;6.60;;;615.30;2432.00;;;;;;5056064;28;20035;-71
2021/06/11 07:52:49;;;;;;;8.52;5.32;;;615.10;2432.00;;;;;;5066500;28;20502;-70
2021/06/11 07:55:15;;;;;;;8.10;5.53;;;615.00;2432.00;;;;;;5067359;28;20372;-71
2021/06/11 07:57:41;;;;;;;8.50;5.45;;;614.90;2432.00;;;;;;5063631;28;20017;-72
2021/06/11 08:00:08;;;;;;;8.65;5.60;;;615.30;2432.00;;;;;;5066788;28;20020;-71
2021/06/11 08:02:34;;;;;;;7.10;5.30;;;640.20;2432.00;;;;;;5064719;28;20092;-70
2021/06/11 08:05:00;;;;;;;5.65;4.50;;;640.80;2432.00;;;;;;5068899;28;20166;-70
2021/06/11 08:07:30;;;;;;;6.97;4.88;;;640.90;2432.00;;;;;;5067030;28;20036;-72
2021/06/11 08:09:58;;;;;;;6.95;4.47;;;665.60;2432.00;;;;;;5064879;28;20491;-72
2021/06/11 08:12:31;;;;;;;6.72;4.60;;;666.00;2432.00;;;;;;5067961;28;20394;-76
2021/06/11 08:14:58;;;;;;;6.50;4.90;;;666.00;2432.00;;;;;;5064516;28;20387;-70
2021/06/11 08:17:24;;;;;;;6.18;4.80;;;666.00;2432.00;;;;;;5068955;28;20070;-72
2021/06/11 08:19:50;;;;;;;5.88;5.20;;;666.20;2432.00;;;;;;5065889;28;20384;-71
2021/06/11 08:22:15;;;;;;;6.85;4.70;;;665.90;2432.00;;;;;;5069757;28;20021;-71
2021/06/11 08:24:41;;;;;;;6.25;4.45;;;691.40;2432.00;;;;;;5064535;28;20509;-71
2021/06/11 08:27:07;;;;;;;6.35;4.60;;;691.80;2432.00;;;;;;5066202;28;20391;-71
2021/06/11 08:29:33;;;;;;;7.68;4.63;;;692.00;2432.00;;;;;;5068368;28;20104;-70
2021/06/11 08:31:59;;;;;;;6.45;4.30;;;717.10;2432.00;;;;;;5065713;28;20475;-72
2021/06/11 08:34:26;;;;;;;5.38;4.07;;;717.50;2432.00;;;;;;5069534;28;20024;-71
2021/06/11 08:36:52;;;;;;;6.68;4.32;;;742.40;2432.00;;;;;;5062126;28;20025;-71
2021/06/11 08:39:18;;;;;;;6.13;4.50;;;717.50;2432.00;;;;;;5063800;28;20040;-69
2021/06/11 08:41:44;;;;;;;7.60;4.57;;;742.50;2432.00;;;;;;5068816;28;20024;-75
2021/06/11 08:44:13;;;;;;;5.35;4.18;;;742.80;2432.00;;;;;;5066196;28;20098;-71
2021/06/11 08:46:40;;;;;;;6.28;4.68;;;742.90;2432.00;;;;;;5066644;28;20040;-72
2021/06/11 08:49:05;;;;;;;6.00;4.20;;;742.90;2432.00;;;;;;5063902;28;20060;-74
2021/06/11 08:51:32;;;;;;;5.55;4.07;;;743.30;2355.20;;;;;;5065715;28;20514;-75
2021/06/11 08:53:58;;;;;;;5.10;4.03;;;768.40;2304.00;;;;;;5066928;28;20052;-75
2021/06/11 08:56:24;;;;;;;5.10;3.80;;;768.20;2278.40;;;;;;5050705;28;20118;-73
2021/06/11 08:58:50;;;;;;;7.97;3.85;;;768.40;2227.20;;;;;;5052358;28;20017;-75
2021/06/11 09:01:16;;;;;;;5.72;3.80;;;743.30;2201.60;;;;;;5055220;28;20387;-78
2021/06/11 09:03:45;;;;;;;4.55;3.17;;;743.00;2201.60;;;;;;5064691;28;20027;-75
2021/06/11 09:06:17;;;;;;;11.93;3.67;;;743.30;2099.20;;;;;;5063755;28;20028;-71
2021/06/11 09:09:09;;;;;;;5.63;3.40;;;743.10;2099.20;;;;;;5065644;28;20040;-71
2021/06/11 09:11:36;;;;;;;5.30;3.88;;;743.00;2124.80;;;;;;5068125;28;20032;-71
2021/06/11 09:14:15;;;;;;;4.82;3.60;;;768.40;2124.80;;;;;;5075845;28;20107;-71
2021/06/11 09:16:52;;;;;;;4.50;3.47;;;768.80;2048.00;;;;;;5068716;28;20032;-72
2021/06/11 09:19:23;;;;;;;6.25;3.70;;;768.60;2073.60;;;;;;5073503;28;20032;-74
2021/06/11 09:21:58;;;;;;;5.38;3.63;;;768.50;2073.60;;;;;;5072634;28;20017;-76
2021/06/11 09:24:28;;;;;;;4.43;3.63;;;768.60;2073.60;;;;;;5074370;28;20051;-75
2021/06/11 09:27:01;;;;;;;5.90;3.70;;;768.90;2048.00;;;;;;5073472;28;20020;-77
2021/06/11 09:29:30;;;;;;;5.25;3.30;;;768.60;2022.40;;;;;;5065228;28;20044;-72
2021/06/11 09:32:13;;;;;;;5.28;3.70;;;768.40;2022.40;;;;;;5058494;28;20386;-73
2021/06/11 09:34:40;;;;;;;5.40;3.45;;;768.50;2022.40;;;;;;5058473;28;20055;-72
2021/06/11 09:37:13;;;;;;;6.28;3.70;;;768.90;1971.20;;;;;;5058389;28;20053;-73
2021/06/11 09:39:44;;;;;;;5.80;3.40;;;793.80;1945.60;;;;;;5058445;28;20025;-72
2021/06/11 09:42:11;;;;;;;4.35;3.53;;;;;;;;;;5058441;28;20017;-72
2021/06/11 09:44:37;;;;;;;5.10;3.40;;;794.00;1920.00;;;;;;5058628;28;20024;-72
2021/06/11 09:47:03;;;;;;;4.35;3.50;;;819.50;1868.80;;;;;;5058635;28;20024;-72
2021/06/11 09:49:39;;;;;;;4.93;3.25;;;819.60;1868.80;;;;;;5058568;28;20159;-73
2021/06/11 09:52:07;;;;;;;4.57;3.40;;;819.50;1817.60;;;;;;5058624;28;20530;-77
2021/06/11 09:54:33;;;;;;;5.25;3.50;;;819.70;1792.00;;;;;;5058275;28;20033;-73
2021/06/11 09:57:21;;;;;;;5.43;3.38;;;819.20;1740.80;;;;;;5058362;28;20032;-73
2021/06/11 09:59:47;;;;;;;4.00;3.05;;;794.20;1792.00;;;;;;5058730;28;20024;-76
2021/06/11 10:02:18;;;;;;;6.10;3.08;;;794.50;1766.40;;;;;;5064478;28;20016;-72
2021/06/11 10:04:45;;;;;;;4.32;3.10;;;794.50;1766.40;;;;;;5053348;28;20029;-79
2021/06/11 10:07:12;;;;;;;4.63;3.05;;;794.20;1715.20;;;;;;5066175;28;20025;-70
2021/06/11 10:09:39;;;;;;;4.38;3.13;;;819.50;1715.20;;;;;;5058486;28;20426;-69
2021/06/11 10:12:06;;;;;;;4.25;3.10;;;819.30;1715.20;;;;;;5070063;28;20040;-73
2021/06/11 10:14:32;;;;;;;4.03;2.92;;;794.50;1689.60;;;;;;5072551;28;20012;-74
2021/06/11 10:16:58;;;;;;;5.00;3.20;;;794.50;1715.20;;;;;;5069869;28;20111;-68
2021/06/11 10:19:28;;;;;;;4.53;3.30;;;819.90;1689.60;;;;;;5063178;28;20475;-72
2021/06/11 10:21:54;;;;;;;5.63;3.20;;;820.10;1664.00;;;;;;5058440;28;20467;-71
2021/06/11 10:24:21;;;;;;;4.07;3.20;;;820.10;1664.00;;;;;;5070991;28;20035;-74
2021/06/11 10:26:48;;;;;;;5.35;3.08;;;819.90;1664.00;;;;;;5069961;28;20090;-69
2021/06/11 10:29:20;;;;;;;4.90;3.00;;;794.50;1689.60;;;;;;5070987;28;20030;-70
2021/06/11 10:31:47;;;;;;;3.70;3.00;;;794.30;1715.20;;;;;;5069081;28;20079;-71
2021/06/11 10:34:13;;;;;;;3.97;3.22;;;794.20;1715.20;;;;;;5071558;28;20498;-70
2021/06/11 10:36:44;;;;;;;5.32;3.25;;;793.90;1740.80;;;;;;5070870;28;20024;-71
2021/06/11 10:39:10;;;;;;;4.03;2.90;;;793.60;1715.20;;;;;;5067865;28;20031;-76
2021/06/11 10:41:57;;;;;;;4.22;3.50;;;768.60;1740.80;;;;;;5069736;28;20020;-71
2021/06/11 10:44:42;;;;;;;4.47;3.30;;;768.00;1766.40;;;;;;5067571;28;20017;-71
2021/06/11 10:47:17;;;;;;;4.05;3.28;;;743.30;1740.80;;;;;;5069274;28;20033;-70
2021/06/11 10:49:59;;;;;;;4.75;3.15;;;743.10;1766.40;;;;;;5069491;28;20470;-71
2021/06/11 10:52:42;;;;;;;4.50;3.33;;;743.10;1792.00;;;;;;5068714;28;20107;-71
2021/06/11 10:55:14;;;;;;;4.03;3.20;;;743.10;1792.00;;;;;;5067819;28;20032;-71
2021/06/11 10:57:45;;;;;;;4.22;3.05;;;743.10;1792.00;;;;;;5065359;28;20475;-73
2021/06/11 11:00:23;;;;;;;4.55;3.25;;;742.90;1792.00;;;;;;5039228;28;20021;-78
2021/06/11 11:02:54;;;;;;;4.50;3.30;;;743.00;1817.60;;;;;;5065880;28;20028;-81
2021/06/11 11:05:36;;;;;;;4.95;3.00;;;742.80;1792.00;;;;;;5052286;28;20020;-85
2021/06/11 11:08:07;;;;;;;4.32;3.00;;;743.00;1766.40;;;;;;5067005;28;20179;-78
2021/06/11 11:10:42;;;;;;;5.72;3.25;;;742.90;1740.80;;;;;;5068379;28;20506;-71
2021/06/11 11:13:15;;;;;;;4.32;3.40;;;743.00;1766.40;;;;;;5063600;28;20058;-75
2021/06/11 11:15:42;;;;;;;5.07;3.22;;;743.20;1817.60;;;;;;5069304;28;20033;-73
2021/06/11 11:18:19;;;;;;;4.72;3.40;;;743.30;1792.00;;;;;;5065533;28;20033;-72
2021/06/11 11:20:45;;;;;;;4.63;3.10;;;768.00;1766.40;;;;;;5071044;28;20368;-71
2021/06/11 11:23:16;;;;;;;4.00;3.20;;;768.10;1766.40;;;;;;5067426;28;20017;-71
2021/06/11 11:25:44;;;;;;;4.85;3.25;;;768.10;1740.80;;;;;;5070613;28;20095;-71
2021/06/11 11:28:11;;;;;;;4.40;3.33;;;768.10;1740.80;;;;;;5066625;28;20105;-72
2021/06/11 11:30:38;;;;;;;4.78;3.25;;;768.10;1740.80;;;;;;5066044;28;20020;-71
2021/06/11 11:33:06;;;;;;;4.97;3.17;;;768.20;1715.20;;;;;;5068803;28;20023;-71
2021/06/11 11:35:38;;;;;;;4.78;3.45;;;768.40;1715.20;;;;;;5069536;28;20025;-71
2021/06/11 11:38:07;;;;;;;4.30;3.05;;;768.50;1740.80;;;;;;5069359;28;20033;-70
2021/06/11 11:40:35;;;;;;;6.97;3.60;;;768.50;1715.20;;;;;;5067726;28;20055;-71
2021/06/11 11:43:01;;;;;;;4.45;3.28;;;768.40;1715.20;;;;;;5070717;28;20332;-75
2021/06/11 11:45:28;;;;;;;5.85;3.28;;;768.40;1740.80;;;;;;5070031;28;20475;-71
2021/06/11 11:47:56;;;;;;;4.72;3.10;;;768.40;1689.60;;;;;;5071288;28;20032;-72
2021/06/11 11:50:23;;;;;;;4.82;3.20;;;768.00;1689.60;;;;;;5071734;28;20439;-80
2021/06/11 11:52:49;;;;;;;5.22;3.20;;;743.30;1664.00;;;;;;5067128;28;20074;-70
2021/06/11 11:55:15;;;;;;;4.38;2.90;;;768.10;1715.20;;;;;;5071964;28;20103;-71
2021/06/11 11:57:42;;;;;;;6.43;2.90;;;768.20;1689.60;;;;;;5063569;28;20033;-73
2021/06/11 12:00:10;;;;;;;6.40;3.00;;;768.60;1664.00;;;;;;5068817;28;20016;-71
2021/06/11 12:02:36;;;;;;;4.25;3.05;;;768.90;1664.00;;;;;;5067675;28;20043;-71
2021/06/11 12:05:02;;;;;;;4.65;3.00;;;768.70;1612.80;;;;;;5067278;28;20386;-71
2021/06/11 12:07:28;;;;;;;4.78;3.20;;;793.60;1638.40;;;;;;5065709;28;20040;-71
2021/06/11 12:09:54;;;;;;;4.57;3.28;;;793.60;1664.00;;;;;;5052983;28;20027;-73
2021/06/11 12:12:20;;;;;;;4.05;2.90;;;793.60;1689.60;;;;;;5060126;28;20025;-70
2021/06/11 12:14:46;;;;;;;4.70;3.13;;;768.90;1612.80;;;;;;5054818;28;20446;-71
2021/06/11 12:17:12;;;;;;;4.00;3.00;;;768.70;1612.80;;;;;;5055918;28;20108;-71
2021/06/11 12:19:38;;;;;;;4.85;3.20;;;768.60;1612.80;;;;;;5053289;28;20448;-75
2021/06/11 12:22:05;;;;;;;4.93;2.80;;;768.50;1612.80;;;;;;5060734;28;20025;-70